sensor_id;sensor_type;location;lat;lon;timestamp;P1;durP1;ratioP1;P2;durP2;ratioP2
287;SDS011;128;48.770;9.198;2024-01-10T00:01:41;28.73;;;10.83;;
287;SDS011;128;48.770;9.198;2024-01-10T00:04:07;27.03;;;11.93;;
287;SDS011;128;48.770;9.198;2024-01-10T00:06:33;25.03;;;11.23;;
287;SDS011;128;48.770;9.198;2024-01-10T00:08:59;24.70;;;11.43;;
287;SDS011;128;48.770;9.198;2024-01-10T00:11:25;57.40;;;12.00;;
287;SDS011;128;48.770;9.198;2024-01-10T00:13:51;21.07;;;9.43;;
287;SDS011;128;48.770;9.198;2024-01-10T00:16:17;24.43;;;11.23;;
287;SDS011;128;48.770;9.198;2024-01-10T00:18:43;26.90;;;11.27;;
287;SDS011;128;48.770;9.198;2024-01-10T00:21:09;25.73;;;12.50;;
287;SDS011;128;48.770;9.198;2024-01-10T00:23:36;24.30;;;10.80;;
287;SDS011;128;48.770;9.198;2024-01-10T00:26:01;34.00;;;12.97;;
287;SDS011;128;48.770;9.198;2024-01-10T00:28:27;28.37;;;12.30;;
287;SDS011;128;48.770;9.198;2024-01-10T00:30:53;26.30;;;11.57;;
287;SDS011;128;48.770;9.198;2024-01-10T00:33:19;29.90;;;11.93;;
287;SDS011;128;48.770;9.198;2024-01-10T00:35:45;25.57;;;11.37;;
287;SDS011;128;48.770;9.198;2024-01-10T00:38:11;29.33;;;10.83;;
287;SDS011;128;48.770;9.198;2024-01-10T00:40:37;28.63;;;9.97;;
287;SDS011;128;48.770;9.198;2024-01-10T00:43:03;28.33;;;12.57;;
287;SDS011;128;48.770;9.198;2024-01-10T00:45:29;25.50;;;11.13;;
287;SDS011;128;48.770;9.198;2024-01-10T00:47:55;28.27;;;11.77;;
287;SDS011;128;48.770;9.198;2024-01-10T00:50:21;33.40;;;12.63;;
287;SDS011;128;48.770;9.198;2024-01-10T00:52:47;28.00;;;11.37;;
287;SDS011;128;48.770;9.198;2024-01-10T00:55:13;28.40;;;11.00;;
287;SDS011;128;48.770;9.198;2024-01-10T00:57:38;26.33;;;12.17;;
287;SDS011;128;48.770;9.198;2024-01-10T01:00:07;27.60;;;11.70;;
287;SDS011;128;48.770;9.198;2024-01-10T01:02:34;25.53;;;11.43;;
287;SDS011;128;48.770;9.198;2024-01-10T01:05:00;30.43;;;12.80;;
287;SDS011;128;48.770;9.198;2024-01-10T01:07:26;22.97;;;11.43;;
287;SDS011;128;48.770;9.198;2024-01-10T01:09:52;35.30;;;11.87;;
287;SDS011;128;48.770;9.198;2024-01-10T01:12:18;23.00;;;11.27;;
287;SDS011;128;48.770;9.198;2024-01-10T01:14:44;27.27;;;11.07;;
287;SDS011;128;48.770;9.198;2024-01-10T01:17:10;29.27;;;11.40;;
287;SDS011;128;48.770;9.198;2024-01-10T01:19:36;25.70;;;12.13;;
287;SDS011;128;48.770;9.198;2024-01-10T01:22:02;32.10;;;12.60;;
287;SDS011;128;48.770;9.198;2024-01-10T01:24:28;29.33;;;12.80;;
287;SDS011;128;48.770;9.198;2024-01-10T01:26:54;27.97;;;11.90;;
287;SDS011;128;48.770;9.198;2024-01-10T01:29:20;28.70;;;13.13;;
287;SDS011;128;48.770;9.198;2024-01-10T01:31:46;29.20;;;11.80;;
287;SDS011;128;48.770;9.198;2024-01-10T01:34:12;28.57;;;12.07;;
287;SDS011;128;48.770;9.198;2024-01-10T01:36:39;23.83;;;12.00;;
287;SDS011;128;48.770;9.198;2024-01-10T01:39:05;29.77;;;12.30;;
287;SDS011;128;48.770;9.198;2024-01-10T01:41:31;27.30;;;12.20;;
287;SDS011;128;48.770;9.198;2024-01-10T01:43:57;29.80;;;11.87;;
287;SDS011;128;48.770;9.198;2024-01-10T01:46:23;38.93;;;12.70;;
287;SDS011;128;48.770;9.198;2024-01-10T01:48:49;28.67;;;13.50;;
287;SDS011;128;48.770;9.198;2024-01-10T01:51:17;29.60;;;12.37;;
287;SDS011;128;48.770;9.198;2024-01-10T01:53:44;24.43;;;11.00;;
287;SDS011;128;48.770;9.198;2024-01-10T01:56:10;27.27;;;11.33;;
287;SDS011;128;48.770;9.198;2024-01-10T01:58:37;25.57;;;12.43;;
287;SDS011;128;48.770;9.198;2024-01-10T02:01:03;29.77;;;12.77;;
287;SDS011;128;48.770;9.198;2024-01-10T02:03:32;25.80;;;12.07;;
287;SDS011;128;48.770;9.198;2024-01-10T02:05:59;32.70;;;13.17;;
287;SDS011;128;48.770;9.198;2024-01-10T02:08:28;23.17;;;11.90;;
287;SDS011;128;48.770;9.198;2024-01-10T02:10:54;29.50;;;13.20;;
287;SDS011;128;48.770;9.198;2024-01-10T02:13:20;25.20;;;12.60;;
287;SDS011;128;48.770;9.198;2024-01-10T02:15:46;35.23;;;12.83;;
287;SDS011;128;48.770;9.198;2024-01-10T02:18:12;27.50;;;13.20;;
287;SDS011;128;48.770;9.198;2024-01-10T02:20:39;29.93;;;13.60;;
287;SDS011;128;48.770;9.198;2024-01-10T02:23:05;30.47;;;12.40;;
287;SDS011;128;48.770;9.198;2024-01-10T02:25:31;25.40;;;12.10;;
287;SDS011;128;48.770;9.198;2024-01-10T02:27:57;26.27;;;11.77;;
287;SDS011;128;48.770;9.198;2024-01-10T02:30:22;32.33;;;13.50;;
287;SDS011;128;48.770;9.198;2024-01-10T02:32:48;29.30;;;13.63;;
287;SDS011;128;48.770;9.198;2024-01-10T02:35:14;30.70;;;12.73;;
287;SDS011;128;48.770;9.198;2024-01-10T02:37:40;25.43;;;13.10;;
287;SDS011;128;48.770;9.198;2024-01-10T02:40:06;28.63;;;13.47;;
287;SDS011;128;48.770;9.198;2024-01-10T02:42:33;36.00;;;14.13;;
287;SDS011;128;48.770;9.198;2024-01-10T02:44:59;38.00;;;15.33;;
287;SDS011;128;48.770;9.198;2024-01-10T02:47:25;31.73;;;13.10;;
287;SDS011;128;48.770;9.198;2024-01-10T02:49:51;31.43;;;14.23;;
287;SDS011;128;48.770;9.198;2024-01-10T02:52:17;28.83;;;12.87;;
287;SDS011;128;48.770;9.198;2024-01-10T02:54:44;30.40;;;13.97;;
287;SDS011;128;48.770;9.198;2024-01-10T02:57:10;30.83;;;13.93;;
287;SDS011;128;48.770;9.198;2024-01-10T02:59:36;35.10;;;14.03;;
287;SDS011;128;48.770;9.198;2024-01-10T03:02:02;39.13;;;13.93;;
287;SDS011;128;48.770;9.198;2024-01-10T03:04:28;28.43;;;12.00;;
287;SDS011;128;48.770;9.198;2024-01-10T03:06:54;33.97;;;13.77;;
287;SDS011;128;48.770;9.198;2024-01-10T03:09:22;31.70;;;14.40;;
287;SDS011;128;48.770;9.198;2024-01-10T03:11:47;21.70;;;12.40;;
287;SDS011;128;48.770;9.198;2024-01-10T03:14:13;32.27;;;12.50;;
287;SDS011;128;48.770;9.198;2024-01-10T03:16:39;31.50;;;14.03;;
287;SDS011;128;48.770;9.198;2024-01-10T03:19:05;25.33;;;12.10;;
287;SDS011;128;48.770;9.198;2024-01-10T03:21:31;26.03;;;13.83;;
287;SDS011;128;48.770;9.198;2024-01-10T03:23:58;38.30;;;15.77;;
287;SDS011;128;48.770;9.198;2024-01-10T03:26:24;29.97;;;13.50;;
287;SDS011;128;48.770;9.198;2024-01-10T03:28:50;32.13;;;13.30;;
287;SDS011;128;48.770;9.198;2024-01-10T03:31:16;28.40;;;13.30;;
287;SDS011;128;48.770;9.198;2024-01-10T03:33:42;27.37;;;14.00;;
287;SDS011;128;48.770;9.198;2024-01-10T03:36:11;26.00;;;12.70;;
287;SDS011;128;48.770;9.198;2024-01-10T03:38:37;37.87;;;14.20;;
287;SDS011;128;48.770;9.198;2024-01-10T03:41:03;30.70;;;13.60;;
287;SDS011;128;48.770;9.198;2024-01-10T03:43:29;31.10;;;15.70;;
287;SDS011;128;48.770;9.198;2024-01-10T03:45:55;32.87;;;14.47;;
287;SDS011;128;48.770;9.198;2024-01-10T03:48:21;33.70;;;15.00;;
287;SDS011;128;48.770;9.198;2024-01-10T03:50:47;35.33;;;14.13;;
287;SDS011;128;48.770;9.198;2024-01-10T03:53:13;42.57;;;16.53;;
287;SDS011;128;48.770;9.198;2024-01-10T03:55:39;33.87;;;15.17;;
287;SDS011;128;48.770;9.198;2024-01-10T03:58:05;36.50;;;14.97;;
287;SDS011;128;48.770;9.198;2024-01-10T04:00:31;30.17;;;15.10;;
287;SDS011;128;48.770;9.198;2024-01-10T04:02:57;31.50;;;14.50;;
287;SDS011;128;48.770;9.198;2024-01-10T04:05:23;39.07;;;16.27;;
287;SDS011;128;48.770;9.198;2024-01-10T04:07:50;33.87;;;15.90;;
287;SDS011;128;48.770;9.198;2024-01-10T04:10:16;35.50;;;15.80;;
287;SDS011;128;48.770;9.198;2024-01-10T04:12:45;34.80;;;14.33;;
287;SDS011;128;48.770;9.198;2024-01-10T04:15:11;35.23;;;15.80;;
287;SDS011;128;48.770;9.198;2024-01-10T04:17:37;40.10;;;15.87;;
287;SDS011;128;48.770;9.198;2024-01-10T04:20:04;35.53;;;15.43;;
287;SDS011;128;48.770;9.198;2024-01-10T04:22:30;28.17;;;13.97;;
287;SDS011;128;48.770;9.198;2024-01-10T04:24:57;33.80;;;15.00;;
287;SDS011;128;48.770;9.198;2024-01-10T04:27:23;36.57;;;16.63;;
287;SDS011;128;48.770;9.198;2024-01-10T04:29:49;35.97;;;16.70;;
287;SDS011;128;48.770;9.198;2024-01-10T04:32:15;36.37;;;14.77;;
287;SDS011;128;48.770;9.198;2024-01-10T04:34:41;36.60;;;17.77;;
287;SDS011;128;48.770;9.198;2024-01-10T04:37:07;29.60;;;14.10;;
287;SDS011;128;48.770;9.198;2024-01-10T04:39:33;33.50;;;14.47;;
287;SDS011;128;48.770;9.198;2024-01-10T04:41:59;41.27;;;15.90;;
287;SDS011;128;48.770;9.198;2024-01-10T04:44:25;38.97;;;16.47;;
287;SDS011;128;48.770;9.198;2024-01-10T04:46:51;34.43;;;14.47;;
287;SDS011;128;48.770;9.198;2024-01-10T04:49:17;35.63;;;14.30;;
287;SDS011;128;48.770;9.198;2024-01-10T04:51:43;40.40;;;16.27;;
287;SDS011;128;48.770;9.198;2024-01-10T04:54:10;29.97;;;14.03;;
287;SDS011;128;48.770;9.198;2024-01-10T04:56:36;31.97;;;13.27;;
287;SDS011;128;48.770;9.198;2024-01-10T04:59:02;36.40;;;14.93;;
287;SDS011;128;48.770;9.198;2024-01-10T05:01:28;31.97;;;14.77;;
287;SDS011;128;48.770;9.198;2024-01-10T05:03:54;34.10;;;14.43;;
287;SDS011;128;48.770;9.198;2024-01-10T05:06:20;27.20;;;14.50;;
287;SDS011;128;48.770;9.198;2024-01-10T05:08:46;34.77;;;14.40;;
287;SDS011;128;48.770;9.198;2024-01-10T05:11:13;36.70;;;15.37;;
287;SDS011;128;48.770;9.198;2024-01-10T05:13:40;38.03;;;16.53;;
287;SDS011;128;48.770;9.198;2024-01-10T05:16:06;31.20;;;15.53;;
287;SDS011;128;48.770;9.198;2024-01-10T05:18:32;34.27;;;16.23;;
287;SDS011;128;48.770;9.198;2024-01-10T05:20:58;31.23;;;15.73;;
287;SDS011;128;48.770;9.198;2024-01-10T05:23:25;45.40;;;16.73;;
287;SDS011;128;48.770;9.198;2024-01-10T05:25:51;36.27;;;15.43;;
287;SDS011;128;48.770;9.198;2024-01-10T05:28:17;35.17;;;14.70;;
287;SDS011;128;48.770;9.198;2024-01-10T05:30:43;35.00;;;16.43;;
287;SDS011;128;48.770;9.198;2024-01-10T05:33:09;27.50;;;14.40;;
287;SDS011;128;48.770;9.198;2024-01-10T05:35:35;39.40;;;15.10;;
287;SDS011;128;48.770;9.198;2024-01-10T05:38:02;40.03;;;16.60;;
287;SDS011;128;48.770;9.198;2024-01-10T05:40:28;33.83;;;14.37;;
287;SDS011;128;48.770;9.198;2024-01-10T05:42:57;45.90;;;16.23;;
287;SDS011;128;48.770;9.198;2024-01-10T05:45:26;37.20;;;18.50;;
287;SDS011;128;48.770;9.198;2024-01-10T05:47:53;32.00;;;15.40;;
287;SDS011;128;48.770;9.198;2024-01-10T05:50:19;39.50;;;16.63;;
287;SDS011;128;48.770;9.198;2024-01-10T05:52:45;45.17;;;16.30;;
287;SDS011;128;48.770;9.198;2024-01-10T05:55:11;36.33;;;15.87;;
287;SDS011;128;48.770;9.198;2024-01-10T05:57:37;30.83;;;14.50;;
287;SDS011;128;48.770;9.198;2024-01-10T06:00:03;39.17;;;16.83;;
287;SDS011;128;48.770;9.198;2024-01-10T06:02:34;36.77;;;14.50;;
287;SDS011;128;48.770;9.198;2024-01-10T06:05:00;38.37;;;17.40;;
287;SDS011;128;48.770;9.198;2024-01-10T06:07:30;36.50;;;16.70;;
287;SDS011;128;48.770;9.198;2024-01-10T06:09:56;33.37;;;15.73;;
287;SDS011;128;48.770;9.198;2024-01-10T06:12:22;40.47;;;17.13;;
287;SDS011;128;48.770;9.198;2024-01-10T06:14:48;30.30;;;13.97;;
287;SDS011;128;48.770;9.198;2024-01-10T06:17:14;39.33;;;17.20;;
287;SDS011;128;48.770;9.198;2024-01-10T06:19:41;30.43;;;14.03;;
287;SDS011;128;48.770;9.198;2024-01-10T06:22:06;34.10;;;16.00;;
287;SDS011;128;48.770;9.198;2024-01-10T06:24:32;42.87;;;17.30;;
287;SDS011;128;48.770;9.198;2024-01-10T06:26:58;36.63;;;16.27;;
287;SDS011;128;48.770;9.198;2024-01-10T06:29:24;43.87;;;15.80;;
287;SDS011;128;48.770;9.198;2024-01-10T06:31:50;40.90;;;17.13;;
287;SDS011;128;48.770;9.198;2024-01-10T06:34:16;39.77;;;16.50;;
287;SDS011;128;48.770;9.198;2024-01-10T06:36:42;37.10;;;16.83;;
287;SDS011;128;48.770;9.198;2024-01-10T06:39:09;44.20;;;16.93;;
287;SDS011;128;48.770;9.198;2024-01-10T06:41:38;40.47;;;15.60;;
287;SDS011;128;48.770;9.198;2024-01-10T06:44:04;44.87;;;17.47;;
287;SDS011;128;48.770;9.198;2024-01-10T06:46:31;36.30;;;15.40;;
287;SDS011;128;48.770;9.198;2024-01-10T06:48:58;36.63;;;17.93;;
287;SDS011;128;48.770;9.198;2024-01-10T06:51:24;43.63;;;17.07;;
287;SDS011;128;48.770;9.198;2024-01-10T06:53:51;42.20;;;18.13;;
287;SDS011;128;48.770;9.198;2024-01-10T06:56:17;35.73;;;15.80;;
287;SDS011;128;48.770;9.198;2024-01-10T06:58:44;42.63;;;17.70;;
287;SDS011;128;48.770;9.198;2024-01-10T07:01:13;36.33;;;16.43;;
287;SDS011;128;48.770;9.198;2024-01-10T07:03:39;44.77;;;16.97;;
287;SDS011;128;48.770;9.198;2024-01-10T07:06:05;35.83;;;16.03;;
287;SDS011;128;48.770;9.198;2024-01-10T07:08:31;35.20;;;16.07;;
287;SDS011;128;48.770;9.198;2024-01-10T07:10:57;35.93;;;17.47;;
287;SDS011;128;48.770;9.198;2024-01-10T07:13:23;40.27;;;17.07;;
287;SDS011;128;48.770;9.198;2024-01-10T07:15:49;31.07;;;15.60;;
287;SDS011;128;48.770;9.198;2024-01-10T07:18:18;40.73;;;16.70;;
287;SDS011;128;48.770;9.198;2024-01-10T07:20:44;42.63;;;16.70;;
287;SDS011;128;48.770;9.198;2024-01-10T07:23:10;40.53;;;16.93;;
287;SDS011;128;48.770;9.198;2024-01-10T07:25:36;33.97;;;15.50;;
287;SDS011;128;48.770;9.198;2024-01-10T07:28:02;38.60;;;16.87;;
287;SDS011;128;48.770;9.198;2024-01-10T07:30:28;41.23;;;16.90;;
287;SDS011;128;48.770;9.198;2024-01-10T07:32:58;49.97;;;19.73;;
287;SDS011;128;48.770;9.198;2024-01-10T07:35:24;42.13;;;17.00;;
287;SDS011;128;48.770;9.198;2024-01-10T07:37:50;39.73;;;16.23;;
287;SDS011;128;48.770;9.198;2024-01-10T07:40:16;40.43;;;17.83;;
287;SDS011;128;48.770;9.198;2024-01-10T07:42:42;37.97;;;16.60;;
287;SDS011;128;48.770;9.198;2024-01-10T07:45:08;37.33;;;16.90;;
287;SDS011;128;48.770;9.198;2024-01-10T07:47:35;41.90;;;18.63;;
287;SDS011;128;48.770;9.198;2024-01-10T07:52:30;47.07;;;17.97;;
287;SDS011;128;48.770;9.198;2024-01-10T07:54:56;40.43;;;17.43;;
287;SDS011;128;48.770;9.198;2024-01-10T07:57:22;39.07;;;16.30;;
287;SDS011;128;48.770;9.198;2024-01-10T07:59:48;42.63;;;18.07;;
287;SDS011;128;48.770;9.198;2024-01-10T08:02:13;46.30;;;19.90;;
287;SDS011;128;48.770;9.198;2024-01-10T08:04:39;36.90;;;17.83;;
287;SDS011;128;48.770;9.198;2024-01-10T08:07:06;40.80;;;18.77;;
287;SDS011;128;48.770;9.198;2024-01-10T08:09:32;35.93;;;17.57;;
287;SDS011;128;48.770;9.198;2024-01-10T08:11:58;38.63;;;17.10;;
287;SDS011;128;48.770;9.198;2024-01-10T08:14:24;40.97;;;19.53;;
287;SDS011;128;48.770;9.198;2024-01-10T08:16:50;37.97;;;17.40;;
287;SDS011;128;48.770;9.198;2024-01-10T08:19:18;37.27;;;16.77;;
287;SDS011;128;48.770;9.198;2024-01-10T08:21:44;37.67;;;18.27;;
287;SDS011;128;48.770;9.198;2024-01-10T08:24:10;40.20;;;17.67;;
287;SDS011;128;48.770;9.198;2024-01-10T08:26:36;43.90;;;19.17;;
287;SDS011;128;48.770;9.198;2024-01-10T08:29:02;36.70;;;17.33;;
287;SDS011;128;48.770;9.198;2024-01-10T08:31:28;41.27;;;19.20;;
287;SDS011;128;48.770;9.198;2024-01-10T08:33:55;43.33;;;18.80;;
287;SDS011;128;48.770;9.198;2024-01-10T08:36:21;43.50;;;18.17;;
287;SDS011;128;48.770;9.198;2024-01-10T08:38:49;45.00;;;18.07;;
287;SDS011;128;48.770;9.198;2024-01-10T08:41:15;45.63;;;20.20;;
287;SDS011;128;48.770;9.198;2024-01-10T08:43:41;44.87;;;18.97;;
287;SDS011;128;48.770;9.198;2024-01-10T08:46:10;46.50;;;19.10;;
287;SDS011;128;48.770;9.198;2024-01-10T08:48:36;53.40;;;20.37;;
287;SDS011;128;48.770;9.198;2024-01-10T08:51:02;39.23;;;19.20;;
287;SDS011;128;48.770;9.198;2024-01-10T08:53:28;41.40;;;19.40;;
287;SDS011;128;48.770;9.198;2024-01-10T08:55:54;47.97;;;18.57;;
287;SDS011;128;48.770;9.198;2024-01-10T08:58:20;49.03;;;20.63;;
287;SDS011;128;48.770;9.198;2024-01-10T09:00:46;45.67;;;18.67;;
287;SDS011;128;48.770;9.198;2024-01-10T09:03:12;41.33;;;20.23;;
287;SDS011;128;48.770;9.198;2024-01-10T09:05:38;45.73;;;20.07;;
287;SDS011;128;48.770;9.198;2024-01-10T09:08:04;51.20;;;20.43;;
287;SDS011;128;48.770;9.198;2024-01-10T09:10:30;39.83;;;19.60;;
287;SDS011;128;48.770;9.198;2024-01-10T09:12:59;44.87;;;21.43;;
287;SDS011;128;48.770;9.198;2024-01-10T09:15:25;42.77;;;20.10;;
287;SDS011;128;48.770;9.198;2024-01-10T09:17:51;49.27;;;20.50;;
287;SDS011;128;48.770;9.198;2024-01-10T09:20:17;48.30;;;22.07;;
287;SDS011;128;48.770;9.198;2024-01-10T09:22:43;46.40;;;21.53;;
287;SDS011;128;48.770;9.198;2024-01-10T09:25:10;45.17;;;21.37;;
287;SDS011;128;48.770;9.198;2024-01-10T09:27:38;48.00;;;21.63;;
287;SDS011;128;48.770;9.198;2024-01-10T09:30:12;46.40;;;22.63;;
287;SDS011;128;48.770;9.198;2024-01-10T09:32:39;45.27;;;22.30;;
287;SDS011;128;48.770;9.198;2024-01-10T09:35:05;48.90;;;21.47;;
287;SDS011;128;48.770;9.198;2024-01-10T09:37:31;47.50;;;20.20;;
287;SDS011;128;48.770;9.198;2024-01-10T09:39:57;53.67;;;22.17;;
287;SDS011;128;48.770;9.198;2024-01-10T09:42:23;38.43;;;19.80;;
287;SDS011;128;48.770;9.198;2024-01-10T09:44:50;49.50;;;22.60;;
287;SDS011;128;48.770;9.198;2024-01-10T09:47:17;48.37;;;21.33;;
287;SDS011;128;48.770;9.198;2024-01-10T09:49:45;51.27;;;23.00;;
287;SDS011;128;48.770;9.198;2024-01-10T09:52:11;54.73;;;23.87;;
287;SDS011;128;48.770;9.198;2024-01-10T09:54:42;46.13;;;21.70;;
287;SDS011;128;48.770;9.198;2024-01-10T09:57:11;46.23;;;22.93;;
287;SDS011;128;48.770;9.198;2024-01-10T09:59:37;46.47;;;21.50;;
287;SDS011;128;48.770;9.198;2024-01-10T10:02:03;45.50;;;19.80;;
287;SDS011;128;48.770;9.198;2024-01-10T10:04:29;47.13;;;21.20;;
287;SDS011;128;48.770;9.198;2024-01-10T10:06:59;56.07;;;22.73;;
287;SDS011;128;48.770;9.198;2024-01-10T10:09:26;51.63;;;21.73;;
287;SDS011;128;48.770;9.198;2024-01-10T10:11:55;54.50;;;24.20;;
287;SDS011;128;48.770;9.198;2024-01-10T10:14:22;48.30;;;23.40;;
287;SDS011;128;48.770;9.198;2024-01-10T10:16:51;50.30;;;21.90;;
287;SDS011;128;48.770;9.198;2024-01-10T10:19:23;48.17;;;21.30;;
287;SDS011;128;48.770;9.198;2024-01-10T10:21:49;49.30;;;22.70;;
287;SDS011;128;48.770;9.198;2024-01-10T10:24:15;53.67;;;22.73;;
287;SDS011;128;48.770;9.198;2024-01-10T10:26:41;46.43;;;21.23;;
287;SDS011;128;48.770;9.198;2024-01-10T10:29:07;54.30;;;23.53;;
287;SDS011;128;48.770;9.198;2024-01-10T10:31:33;49.53;;;22.90;;
287;SDS011;128;48.770;9.198;2024-01-10T10:34:00;54.87;;;24.90;;
287;SDS011;128;48.770;9.198;2024-01-10T10:36:27;54.40;;;22.40;;
287;SDS011;128;48.770;9.198;2024-01-10T10:38:53;53.67;;;22.10;;
287;SDS011;128;48.770;9.198;2024-01-10T10:41:19;44.63;;;21.47;;
287;SDS011;128;48.770;9.198;2024-01-10T10:43:45;50.43;;;22.97;;
287;SDS011;128;48.770;9.198;2024-01-10T10:46:11;55.97;;;23.27;;
287;SDS011;128;48.770;9.198;2024-01-10T10:48:37;60.73;;;23.40;;
287;SDS011;128;48.770;9.198;2024-01-10T10:51:05;53.80;;;23.33;;
287;SDS011;128;48.770;9.198;2024-01-10T10:53:34;47.30;;;23.63;;
287;SDS011;128;48.770;9.198;2024-01-10T10:56:02;58.40;;;24.90;;
287;SDS011;128;48.770;9.198;2024-01-10T10:58:28;56.00;;;24.67;;
287;SDS011;128;48.770;9.198;2024-01-10T11:00:54;58.93;;;23.13;;
287;SDS011;128;48.770;9.198;2024-01-10T11:03:21;46.50;;;24.30;;
287;SDS011;128;48.770;9.198;2024-01-10T11:05:47;51.97;;;24.10;;
287;SDS011;128;48.770;9.198;2024-01-10T11:08:14;52.17;;;24.33;;
287;SDS011;128;48.770;9.198;2024-01-10T11:10:41;54.53;;;24.47;;
287;SDS011;128;48.770;9.198;2024-01-10T11:18:09;56.70;;;24.97;;
287;SDS011;128;48.770;9.198;2024-01-10T11:25:41;50.90;;;22.90;;
287;SDS011;128;48.770;9.198;2024-01-10T11:28:07;50.27;;;23.20;;
287;SDS011;128;48.770;9.198;2024-01-10T11:38:29;57.67;;;26.00;;
287;SDS011;128;48.770;9.198;2024-01-10T11:40:55;51.40;;;22.80;;
287;SDS011;128;48.770;9.198;2024-01-10T11:43:22;59.47;;;26.80;;
287;SDS011;128;48.770;9.198;2024-01-10T11:45:51;60.43;;;25.20;;
287;SDS011;128;48.770;9.198;2024-01-10T11:48:27;49.80;;;24.50;;
287;SDS011;128;48.770;9.198;2024-01-10T11:50:54;54.30;;;24.07;;
287;SDS011;128;48.770;9.198;2024-01-10T11:53:39;54.33;;;24.20;;
287;SDS011;128;48.770;9.198;2024-01-10T11:56:14;59.87;;;24.50;;
287;SDS011;128;48.770;9.198;2024-01-10T11:58:54;58.67;;;26.70;;
287;SDS011;128;48.770;9.198;2024-01-10T12:01:20;57.33;;;26.20;;
287;SDS011;128;48.770;9.198;2024-01-10T12:03:47;62.90;;;26.03;;
287;SDS011;128;48.770;9.198;2024-01-10T12:06:14;54.80;;;25.20;;
287;SDS011;128;48.770;9.198;2024-01-10T12:08:40;55.77;;;23.57;;
287;SDS011;128;48.770;9.198;2024-01-10T12:11:06;59.80;;;24.90;;
287;SDS011;128;48.770;9.198;2024-01-10T12:13:33;57.57;;;26.00;;
287;SDS011;128;48.770;9.198;2024-01-10T12:15:59;43.57;;;22.13;;
287;SDS011;128;48.770;9.198;2024-01-10T12:18:25;50.53;;;22.90;;
287;SDS011;128;48.770;9.198;2024-01-10T12:20:51;61.10;;;24.00;;
287;SDS011;128;48.770;9.198;2024-01-10T12:23:17;62.63;;;23.67;;
287;SDS011;128;48.770;9.198;2024-01-10T12:25:43;62.07;;;27.77;;
287;SDS011;128;48.770;9.198;2024-01-10T12:28:09;52.27;;;22.93;;
287;SDS011;128;48.770;9.198;2024-01-10T12:30:35;59.50;;;25.03;;
287;SDS011;128;48.770;9.198;2024-01-10T12:33:01;56.43;;;22.67;;
287;SDS011;128;48.770;9.198;2024-01-10T12:35:27;49.77;;;21.00;;
287;SDS011;128;48.770;9.198;2024-01-10T12:37:54;50.00;;;24.20;;
287;SDS011;128;48.770;9.198;2024-01-10T12:40:23;62.17;;;25.37;;
287;SDS011;128;48.770;9.198;2024-01-10T12:42:49;50.53;;;22.60;;
287;SDS011;128;48.770;9.198;2024-01-10T12:45:24;54.73;;;23.40;;
287;SDS011;128;48.770;9.198;2024-01-10T12:47:50;54.80;;;23.67;;
287;SDS011;128;48.770;9.198;2024-01-10T12:50:19;40.87;;;20.90;;
287;SDS011;128;48.770;9.198;2024-01-10T12:52:44;54.97;;;24.80;;
287;SDS011;128;48.770;9.198;2024-01-10T12:55:11;60.10;;;25.30;;
287;SDS011;128;48.770;9.198;2024-01-10T12:57:37;45.97;;;21.20;;
287;SDS011;128;48.770;9.198;2024-01-10T13:00:03;49.83;;;22.90;;
287;SDS011;128;48.770;9.198;2024-01-10T13:02:33;50.60;;;23.70;;
287;SDS011;128;48.770;9.198;2024-01-10T13:05:02;51.70;;;22.47;;
287;SDS011;128;48.770;9.198;2024-01-10T13:07:28;57.70;;;26.00;;
287;SDS011;128;48.770;9.198;2024-01-10T13:09:56;54.40;;;23.80;;
287;SDS011;128;48.770;9.198;2024-01-10T13:12:22;52.87;;;23.80;;
287;SDS011;128;48.770;9.198;2024-01-10T13:14:48;46.27;;;23.00;;
287;SDS011;128;48.770;9.198;2024-01-10T13:17:14;52.97;;;24.93;;
287;SDS011;128;48.770;9.198;2024-01-10T13:19:40;56.37;;;23.23;;
287;SDS011;128;48.770;9.198;2024-01-10T13:22:08;71.57;;;30.57;;
287;SDS011;128;48.770;9.198;2024-01-10T13:24:34;64.47;;;28.40;;
287;SDS011;128;48.770;9.198;2024-01-10T13:27:00;55.07;;;23.87;;
287;SDS011;128;48.770;9.198;2024-01-10T13:29:26;51.00;;;23.37;;
287;SDS011;128;48.770;9.198;2024-01-10T13:31:52;59.90;;;27.37;;
287;SDS011;128;48.770;9.198;2024-01-10T13:34:18;53.63;;;24.00;;
287;SDS011;128;48.770;9.198;2024-01-10T13:36:44;50.07;;;23.70;;
287;SDS011;128;48.770;9.198;2024-01-10T13:39:10;65.30;;;24.27;;
287;SDS011;128;48.770;9.198;2024-01-10T13:41:40;51.77;;;24.17;;
287;SDS011;128;48.770;9.198;2024-01-10T13:44:06;60.60;;;26.57;;
287;SDS011;128;48.770;9.198;2024-01-10T13:46:32;58.30;;;25.03;;
287;SDS011;128;48.770;9.198;2024-01-10T13:48:59;50.70;;;23.30;;
287;SDS011;128;48.770;9.198;2024-01-10T13:51:26;55.33;;;25.60;;
287;SDS011;128;48.770;9.198;2024-01-10T13:53:51;54.70;;;25.13;;
287;SDS011;128;48.770;9.198;2024-01-10T13:56:17;63.53;;;27.07;;
287;SDS011;128;48.770;9.198;2024-01-10T13:58:43;68.50;;;26.50;;
287;SDS011;128;48.770;9.198;2024-01-10T14:01:09;60.37;;;28.97;;
287;SDS011;128;48.770;9.198;2024-01-10T14:03:35;64.03;;;27.97;;
287;SDS011;128;48.770;9.198;2024-01-10T14:06:01;58.33;;;26.93;;
287;SDS011;128;48.770;9.198;2024-01-10T14:08:27;112.70;;;30.37;;
287;SDS011;128;48.770;9.198;2024-01-10T14:10:53;74.53;;;29.97;;
287;SDS011;128;48.770;9.198;2024-01-10T14:13:19;68.37;;;31.00;;
287;SDS011;128;48.770;9.198;2024-01-10T14:15:45;62.73;;;27.20;;
287;SDS011;128;48.770;9.198;2024-01-10T14:18:11;56.47;;;26.40;;
287;SDS011;128;48.770;9.198;2024-01-10T14:20:37;61.10;;;26.37;;
287;SDS011;128;48.770;9.198;2024-01-10T14:23:03;59.93;;;25.57;;
287;SDS011;128;48.770;9.198;2024-01-10T14:25:29;59.37;;;27.10;;
287;SDS011;128;48.770;9.198;2024-01-10T14:27:55;59.63;;;25.10;;
287;SDS011;128;48.770;9.198;2024-01-10T14:30:23;63.70;;;26.83;;
287;SDS011;128;48.770;9.198;2024-01-10T14:32:50;59.27;;;26.13;;
287;SDS011;128;48.770;9.198;2024-01-10T14:35:16;63.07;;;26.93;;
287;SDS011;128;48.770;9.198;2024-01-10T14:37:42;80.50;;;29.13;;
287;SDS011;128;48.770;9.198;2024-01-10T14:40:08;67.47;;;27.50;;
287;SDS011;128;48.770;9.198;2024-01-10T14:42:34;63.40;;;26.70;;
287;SDS011;128;48.770;9.198;2024-01-10T14:45:00;70.20;;;29.30;;
287;SDS011;128;48.770;9.198;2024-01-10T14:47:26;57.00;;;26.77;;
287;SDS011;128;48.770;9.198;2024-01-10T14:49:53;63.90;;;28.80;;
287;SDS011;128;48.770;9.198;2024-01-10T14:52:20;64.97;;;29.83;;
287;SDS011;128;48.770;9.198;2024-01-10T14:54:46;66.33;;;26.70;;
287;SDS011;128;48.770;9.198;2024-01-10T14:57:11;73.03;;;26.87;;
287;SDS011;128;48.770;9.198;2024-01-10T14:59:37;59.30;;;26.90;;
287;SDS011;128;48.770;9.198;2024-01-10T15:02:05;66.90;;;29.60;;
287;SDS011;128;48.770;9.198;2024-01-10T15:04:32;68.87;;;28.60;;
287;SDS011;128;48.770;9.198;2024-01-10T15:06:58;55.70;;;25.47;;
287;SDS011;128;48.770;9.198;2024-01-10T15:09:26;57.70;;;26.73;;
287;SDS011;128;48.770;9.198;2024-01-10T15:11:52;65.47;;;26.37;;
287;SDS011;128;48.770;9.198;2024-01-10T15:14:19;64.83;;;25.70;;
287;SDS011;128;48.770;9.198;2024-01-10T15:16:47;54.10;;;25.57;;
287;SDS011;128;48.770;9.198;2024-01-10T15:19:13;58.60;;;26.37;;
287;SDS011;128;48.770;9.198;2024-01-10T15:21:39;60.63;;;26.00;;
287;SDS011;128;48.770;9.198;2024-01-10T15:24:05;64.53;;;26.27;;
287;SDS011;128;48.770;9.198;2024-01-10T15:26:31;55.73;;;25.90;;
287;SDS011;128;48.770;9.198;2024-01-10T15:28:57;58.27;;;26.73;;
287;SDS011;128;48.770;9.198;2024-01-10T15:31:24;66.40;;;27.10;;